^^
Station Historical Data
Daily Summary for May 20, 2019 Units:  English    Metric   Both
« Previous Day
Next Day »
Daily Weekly Monthly Yearly Custom
  High: Low: Average:
Temperature: 60.5 °F 36.3 °F 48.9 °F
Dew Point: 41.1 °F 31.9 °F 35.9 °F
Humidity: 88% 37% 63%
Wind Speed: 19mph 0mph 5.6mph
Wind Gust: 25mph - -
Wind- - South
Pressure: 30.07 in 29.98 in -
Precipitation: 0 in    
Historical Graphs
 
 
Tabular Data for May 20, 2019
Time Temperature Dew Point Pressure Wind Wind Speed Wind Gust Humidity Rainfall Rate (Hourly) solar Conditions
00:04 41.2 °F 35.2 °F 30.05 in West 3 mph 6 mph 79% 0 in 0.00 W/m2
00:09 41.3 °F 35.3 °F 30.05 in West 4 mph 6 mph 79% 0 in 0.00 W/m2
00:14 41.1 °F 34.8 °F 30.04 in WNW 4 mph 6 mph 78% 0 in 0.00 W/m2
00:19 41 °F 35 °F 30.04 in WNW 4 mph 6 mph 79% 0 in 0.00 W/m2
00:24 41 °F 35 °F 30.05 in WNW 4 mph 5 mph 79% 0 in 0.00 W/m2
00:29 40.9 °F 34.9 °F 30.04 in WNW 3 mph 5 mph 79% 0 in 0.00 W/m2
00:34 40.8 °F 34.8 °F 30.05 in WNW 4 mph 5 mph 79% 0 in 0.00 W/m2
00:39 40.5 °F 34.8 °F 30.05 in WNW 4 mph 5 mph 80% 0 in 0.00 W/m2
00:44 40.3 °F 34.6 °F 30.05 in WNW 3 mph 5 mph 80% 0 in 0.00 W/m2
00:49 40.1 °F 34.4 °F 30.05 in WNW 3 mph 4 mph 80% 0 in 0.00 W/m2
00:54 40.2 °F 34.8 °F 30.05 in WNW 2 mph 4 mph 81% 0 in 0.00 W/m2
00:59 40.1 °F 34.4 °F 30.05 in WNW 2 mph 4 mph 80% 0 in 0.00 W/m2
01:04 39.9 °F 34.2 °F 30.05 in WNW 1 mph 4 mph 80% 0 in 0.00 W/m2
01:09 39.8 °F 34.4 °F 30.05 in WNW 2 mph 2 mph 81% 0 in 0.00 W/m2
01:14 39.7 °F 34.3 °F 30.05 in WNW 1 mph 2 mph 81% 0 in 0.00 W/m2
01:19 40.1 °F 34.7 °F 30.05 in WNW 3 mph 3 mph 81% 0 in 0.00 W/m2
01:24 40.5 °F 34.8 °F 30.05 in WNW 2 mph 3 mph 80% 0 in 0.00 W/m2
01:29 40.8 °F 34.8 °F 30.05 in WNW 3 mph 3 mph 79% 0 in 0.00 W/m2
01:34 41 °F 35 °F 30.05 in WNW 3 mph 4 mph 79% 0 in 0.00 W/m2
01:39 41.1 °F 34.8 °F 30.05 in WNW 2 mph 4 mph 78% 0 in 0.00 W/m2
01:44 40.9 °F 34.6 °F 30.05 in WNW 3 mph 4 mph 78% 0 in 0.00 W/m2
01:49 40.7 °F 34.4 °F 30.05 in WNW 3 mph 4 mph 78% 0 in 0.00 W/m2
01:54 40.6 °F 34.6 °F 30.05 in WNW 3 mph 4 mph 79% 0 in 0.00 W/m2
01:59 40.5 °F 34.5 °F 30.04 in WNW 3 mph 4 mph 79% 0 in 0.00 W/m2
02:04 40.4 °F 34.4 °F 30.04 in WNW 3 mph 4 mph 79% 0 in 0.00 W/m2
02:09 40.3 °F 34.6 °F 30.04 in WNW 3 mph 4 mph 80% 0 in 0.00 W/m2
02:14 40.1 °F 34.4 °F 30.04 in WNW 4 mph 4 mph 80% 0 in 0.00 W/m2
02:19 39.6 °F 33.6 °F 30.04 in NW 4 mph 5 mph 79% 0 in 0.00 W/m2
02:24 39 °F 33.4 °F 30.04 in NW 4 mph 5 mph 80% 0 in 0.00 W/m2
02:29 38.7 °F 33.4 °F 30.04 in NW 4 mph 5 mph 81% 0 in 0.00 W/m2
02:34 38.4 °F 33.4 °F 30.03 in NW 4 mph 5 mph 82% 0 in 0.00 W/m2
02:39 38.3 °F 33.6 °F 30.04 in NW 3 mph 5 mph 83% 0 in 0.00 W/m2
02:44 38.3 °F 33.6 °F 30.04 in NW 3 mph 5 mph 83% 0 in 0.00 W/m2
02:49 38.3 °F 33.6 °F 30.04 in NW 2 mph 4 mph 83% 0 in 0.00 W/m2
02:54 38.2 °F 33.5 °F 30.04 in NW 3 mph 4 mph 83% 0 in 0.00 W/m2
02:59 38.1 °F 33.4 °F 30.04 in NW 2 mph 4 mph 83% 0 in 0.00 W/m2
03:04 37.9 °F 33.2 °F 30.04 in NW 2 mph 4 mph 83% 0 in 0.00 W/m2
03:09 37.7 °F 33 °F 30.04 in NW 3 mph 4 mph 83% 0 in 0.00 W/m2
03:14 37.4 °F 32.7 °F 30.04 in NW 2 mph 4 mph 83% 0 in 0.00 W/m2
03:19 37.3 °F 32.9 °F 30.04 in NW 2 mph 3 mph 84% 0 in 0.00 W/m2
03:24 37.3 °F 32.9 °F 30.04 in NW 3 mph 3 mph 84% 0 in 0.00 W/m2
03:29 37.3 °F 33.2 °F 30.04 in NW 3 mph 3 mph 85% 0 in 0.00 W/m2
03:34 37.4 °F 33.3 °F 30.04 in NW 2 mph 3 mph 85% 0 in 0.00 W/m2
03:39 37.6 °F 33.5 °F 30.04 in NW 3 mph 3 mph 85% 0 in 0.00 W/m2
03:44 37.7 °F 33.6 °F 30.04 in NW 1 mph 3 mph 85% 0 in 0.00 W/m2
03:49 37.8 °F 33.4 °F 30.04 in NW 2 mph 3 mph 84% 0 in 0.00 W/m2
03:54 37.8 °F 33.4 °F 30.04 in NW 1 mph 3 mph 84% 0 in 0.00 W/m2
03:59 37.8 °F 33.4 °F 30.04 in NW 1 mph 3 mph 84% 0 in 0.00 W/m2
04:04 37.7 °F 33.3 °F 30.04 in NW 1 mph 3 mph 84% 0 in 0.00 W/m2
04:09 37.6 °F 33.2 °F 30.04 in Calm   2 mph 84% 0 in 0.00 W/m2
04:14 37.4 °F 33 °F 30.05 in Calm   2 mph 84% 0 in 0.00 W/m2
04:19 37.3 °F 33.2 °F 30.05 in Calm   1 mph 85% 0 in 0.00 W/m2
04:24 37.2 °F 33.1 °F 30.05 in Calm   1 mph 85% 0 in 0.00 W/m2
04:29 37.2 °F 33.1 °F 30.05 in NW 1 mph 2 mph 85% 0 in 0.00 W/m2
04:34 37.3 °F 33.2 °F 30.05 in NW 2 mph 2 mph 85% 0 in 0.00 W/m2
04:39 37.3 °F 33.2 °F 30.05 in Calm   2 mph 85% 0 in 0.00 W/m2
04:44 37.4 °F 33.3 °F 30.05 in Calm   2 mph 85% 0 in 0.00 W/m2
04:49 37.4 °F 33.3 °F 30.05 in NW 2 mph 2 mph 85% 0 in 0.00 W/m2
04:54 37.5 °F 33.4 °F 30.05 in NW 2 mph 2 mph 85% 0 in 0.00 W/m2
04:59 37.3 °F 32.9 °F 30.05 in NW 1 mph 3 mph 84% 0 in 0.00 W/m2
05:04 37.1 °F 32.7 °F 30.05 in NW 2 mph 3 mph 84% 0 in 0.00 W/m2
05:09 37.1 °F 33 °F 30.05 in NW 2 mph 3 mph 85% 0 in 0.00 W/m2
05:14 37.2 °F 33.1 °F 30.05 in NW 2 mph 3 mph 85% 0 in 0.00 W/m2
05:19 37.3 °F 33.2 °F 30.05 in NW 2 mph 3 mph 85% 0 in 0.00 W/m2
05:24 37.5 °F 33.4 °F 30.05 in NW 2 mph 3 mph 85% 0 in 0.00 W/m2
05:29 37.4 °F 33 °F 30.05 in NW 1 mph 2 mph 84% 0 in 0.00 W/m2
05:34 37.3 °F 32.9 °F 30.05 in Calm   2 mph 84% 0 in 0.00 W/m2
05:39 37 °F 32.6 °F 30.05 in Calm   2 mph 84% 0 in 0.00 W/m2
05:44 36.9 °F 32.5 °F 30.05 in Calm   2 mph 84% 0 in 0.00 W/m2
05:49 36.7 °F 32.6 °F 30.05 in Calm   2 mph 85% 0 in 0.00 W/m2
05:54 36.6 °F 32.5 °F 30.05 in Calm     85% 0 in 0.00 W/m2
05:59 36.6 °F 32.8 °F 30.05 in Calm   1 mph 86% 0 in 0.00 W/m2
06:04 36.6 °F 32.5 °F 30.05 in Calm   1 mph 85% 0 in 5.00 W/m2
06:09 36.7 °F 32.9 °F 30.06 in Calm   1 mph 86% 0 in 7.00 W/m2
06:14 36.8 °F 33 °F 30.05 in NW 1 mph 2 mph 86% 0 in 11.00 W/m2
06:19 37 °F 32.9 °F 30.05 in NW 2 mph 2 mph 85% 0 in 12.00 W/m2
06:24 36.9 °F 32.8 °F 30.05 in NW 1 mph 2 mph 85% 0 in 12.00 W/m2
06:29 36.7 °F 32.6 °F 30.05 in NW 1 mph 2 mph 85% 0 in 14.00 W/m2
06:34 36.6 °F 32.8 °F 30.05 in NW 1 mph 2 mph 86% 0 in 16.00 W/m2
06:39 36.6 °F 32.8 °F 30.05 in NW 2 mph 3 mph 86% 0 in 18.00 W/m2
06:44 36.5 °F 32.7 °F 30.05 in NW 4 mph 4 mph 86% 0 in 21.00 W/m2
06:49 36.3 °F 32.5 °F 30.05 in NW 3 mph 4 mph 86% 0 in 23.00 W/m2
06:54 36.3 °F 32.5 °F 30.05 in NW 1 mph 3 mph 86% 0 in 25.00 W/m2
06:59 36.4 °F 32.6 °F 30.05 in NW 2 mph 4 mph 86% 0 in 28.00 W/m2
07:04 36.5 °F 32.7 °F 30.06 in NW 1 mph 4 mph 86% 0 in 32.00 W/m2
07:09 36.5 °F 33 °F 30.06 in Calm   2 mph 87% 0 in 33.00 W/m2
07:14 36.9 °F 33.4 °F 30.06 in NW 2 mph 2 mph 87% 0 in 35.00 W/m2
07:19 37.3 °F 34.1 °F 30.06 in NW 2 mph 3 mph 88% 0 in 37.00 W/m2
07:24 37.8 °F 34.3 °F 30.06 in Calm   3 mph 87% 0 in 39.00 W/m2
07:29 37.7 °F 33.9 °F 30.07 in Calm   2 mph 86% 0 in 42.00 W/m2
07:34 37.8 °F 34 °F 30.07 in Calm   3 mph 86% 0 in 44.00 W/m2
07:39 37.9 °F 34.4 °F 30.07 in Calm   3 mph 87% 0 in 121.00 W/m2
07:44 38 °F 34.5 °F 30.07 in Calm     87% 0 in 192.00 W/m2
07:49 38.6 °F 35.1 °F 30.07 in Calm   2 mph 87% 0 in 139.00 W/m2
07:54 39.6 °F 36 °F 30.07 in Calm   2 mph 87% 0 in 267.00 W/m2
07:59 40.6 °F 36.4 °F 30.07 in West 2 mph 4 mph 85% 0 in 292.00 W/m2
08:04 41.3 °F 36.8 °F 30.07 in West 1 mph 4 mph 84% 0 in 322.00 W/m2
08:09 41.9 °F 36.8 °F 30.07 in West 1 mph 4 mph 82% 0 in 352.00 W/m2
08:14 42.7 °F 37.3 °F 30.07 in Calm   4 mph 81% 0 in 325.00 W/m2
08:19 44.1 °F 38.3 °F 30.07 in Calm   2 mph 80% 0 in 373.00 W/m2
08:24 45.3 °F 38.2 °F 30.07 in ENE 1 mph 2 mph 76% 0 in 334.00 W/m2
08:29 46 °F 38.5 °F 30.07 in East 2 mph 3 mph 75% 0 in 325.00 W/m2
08:34 46.7 °F 38.9 °F 30.07 in SE 2 mph 4 mph 74% 0 in 345.00 W/m2
08:39 46.7 °F 38.9 °F 30.07 in SE 2 mph 4 mph 74% 0 in 348.00 W/m2
08:44 46.9 °F 39.7 °F 30.07 in ESE 2 mph 4 mph 76% 0 in 246.00 W/m2
08:49 46.8 °F 38.9 °F 30.07 in SE 3 mph 4 mph 74% 0 in 322.00 W/m2
08:54 46.7 °F 38.5 °F 30.07 in SE 2 mph 4 mph 73% 0 in 374.00 W/m2
08:59 46.9 °F 38.7 °F 30.07 in SE 2 mph 4 mph 73% 0 in 422.00 W/m2
09:04 47.2 °F 38.6 °F 30.07 in SE 2 mph 4 mph 72% 0 in 325.00 W/m2
09:09 47.4 °F 38.5 °F 30.07 in SE 1 mph 3 mph 71% 0 in 346.00 W/m2
09:14 47.8 °F 38.8 °F 30.07 in ESE 3 mph 4 mph 71% 0 in 436.00 W/m2
09:19 48.5 °F 39.2 °F 30.07 in Calm   4 mph 70% 0 in 534.00 W/m2
09:24 49.4 °F 38.5 °F 30.07 in Calm   4 mph 66% 0 in 533.00 W/m2
09:29 50 °F 37.9 °F 30.07 in SSE 2 mph 5 mph 63% 0 in 538.00 W/m2
09:34 50.4 °F 37.4 °F 30.07 in SSE 1 mph 5 mph 61% 0 in 550.00 W/m2
09:39 50.7 °F 37.7 °F 30.07 in SSE 1 mph 5 mph 61% 0 in 563.00 W/m2
09:44 51.1 °F 37.7 °F 30.07 in SE 1 mph 5 mph 60% 0 in 577.00 W/m2
09:49 51.4 °F 37.1 °F 30.07 in SE 1 mph 5 mph 58% 0 in 592.00 W/m2
09:54 51.9 °F 36.2 °F 30.06 in SE 4 mph 5 mph 55% 0 in 606.00 W/m2
09:59 52.1 °F 35.9 °F 30.06 in ESE 1 mph 5 mph 54% 0 in 619.00 W/m2
10:04 52.6 °F 35.9 °F 30.06 in ESE 1 mph 5 mph 53% 0 in 631.00 W/m2
10:09 53.1 °F 34.9 °F 30.06 in SSE 1 mph 5 mph 50% 0 in 645.00 W/m2
10:14 53.6 °F 35.4 °F 30.05 in ENE 8 mph 9 mph 50% 0 in 657.00 W/m2
10:19 53.4 °F 34.2 °F 30.05 in East 2 mph 9 mph 48% 0 in 670.00 W/m2
10:24 53.8 °F 35.1 °F 30.05 in ESE 3 mph 8 mph 49% 0 in 684.00 W/m2
10:29 54.3 °F 33.9 °F 30.05 in NE 5 mph 9 mph 46% 0 in 696.00 W/m2
10:34 54.2 °F 33.3 °F 30.05 in North 3 mph 9 mph 45% 0 in 705.00 W/m2
10:39 54.2 °F 33.9 °F 30.05 in SE 3 mph 9 mph 46% 0 in 717.00 W/m2
10:44 54.7 °F 34.8 °F 30.05 in East 4 mph 9 mph 47% 0 in 731.00 W/m2
10:49 55.3 °F 34.3 °F 30.05 in East 3 mph 8 mph 45% 0 in 742.00 W/m2
10:54 55.6 °F 33.4 °F 30.04 in ENE 3 mph 9 mph 43% 0 in 752.00 W/m2
10:59 55.9 °F 33.7 °F 30.04 in East 4 mph 9 mph 43% 0 in 765.00 W/m2
11:04 55.6 °F 34 °F 30.04 in ESE 9 mph 12 mph 44% 0 in 773.00 W/m2
11:09 55.5 °F 33.3 °F 30.04 in ESE 7 mph 12 mph 43% 0 in 780.00 W/m2
11:14 55.9 °F 33.1 °F 30.04 in ESE 4 mph 11 mph 42% 0 in 759.00 W/m2
11:19 56.1 °F 32.1 °F 30.04 in SE 8 mph 16 mph 40% 0 in 722.00 W/m2
11:24 55.9 °F 31.9 °F 30.05 in SE 8 mph 16 mph 40% 0 in 682.00 W/m2
11:29 56 °F 33.8 °F 30.05 in East 11 mph 16 mph 43% 0 in 652.00 W/m2
11:34 56.4 °F 34.2 °F 30.05 in SE 15 mph 16 mph 43% 0 in 649.00 W/m2
11:39 56.2 °F 32.2 °F 30.05 in ESE 4 mph 16 mph 40% 0 in 675.00 W/m2
11:44 56.3 °F 32.9 °F 30.05 in ESE 14 mph 17 mph 41% 0 in 724.00 W/m2
11:49 56.6 °F 33.2 °F 30.05 in SE 13 mph 17 mph 41% 0 in 796.00 W/m2
11:54 56.7 °F 32.6 °F 30.06 in East 13 mph 17 mph 40% 0 in 851.00 W/m2
11:59 56.5 °F 32.4 °F 30.06 in ESE 7 mph 17 mph 40% 0 in 868.00 W/m2
12:04 56.6 °F 33.2 °F 30.05 in ESE 9 mph 17 mph 41% 0 in 875.00 W/m2
12:09 56.4 °F 33.6 °F 30.05 in East 8 mph 19 mph 42% 0 in 882.00 W/m2
12:14 56.7 °F 33.8 °F 30.05 in East 9 mph 19 mph 42% 0 in 888.00 W/m2
12:19 57.1 °F 34.8 °F 30.05 in ENE 11 mph 19 mph 43% 0 in 891.00 W/m2
12:24 57.1 °F 34.8 °F 30.04 in ESE 12 mph 19 mph 43% 0 in 844.00 W/m2
12:29 57.3 °F 35.6 °F 30.04 in East 11 mph 18 mph 44% 0 in 900.00 W/m2
12:34 57.3 °F 35.6 °F 30.05 in East 6 mph 18 mph 44% 0 in 909.00 W/m2
12:39 57.8 °F 37.7 °F 30.05 in East 15 mph 20 mph 47% 0 in 918.00 W/m2
12:44 57.6 °F 35.2 °F 30.05 in ENE 3 mph 20 mph 43% 0 in 965.00 W/m2
12:49 57.7 °F 35.3 °F 30.05 in East 8 mph 20 mph 43% 0 in 1027.00 W/m2
12:54 58.1 °F 37.4 °F 30.05 in SE 13 mph 20 mph 46% 0 in 979.00 W/m2
12:59 58.3 °F 37 °F 30.05 in ESE 12 mph 20 mph 45% 0 in 958.00 W/m2
13:04 58.1 °F 36.3 °F 30.04 in SE 15 mph 22 mph 44% 0 in 942.00 W/m2
13:09 58 °F 35.6 °F 30.05 in SE 18 mph 22 mph 43% 0 in 942.00 W/m2
13:14 58.2 °F 36.9 °F 30.05 in ESE 15 mph 22 mph 45% 0 in 942.00 W/m2
13:19 58.6 °F 36.7 °F 30.05 in SE 17 mph 22 mph 44% 0 in 944.00 W/m2
13:24 58.1 °F 34.5 °F 30.05 in ESE 7 mph 20 mph 41% 0 in 949.00 W/m2
13:29 58.7 °F 35.7 °F 30.05 in ESE 12 mph 19 mph 42% 0 in 962.00 W/m2
13:34 58 °F 36.8 °F 30.05 in ESE 19 mph 20 mph 45% 0 in 241.00 W/m2
13:39 58 °F 36.8 °F 30.04 in SE 10 mph 20 mph 45% 0 in 1013.00 W/m2
13:44 57.8 °F 36 °F 30.04 in ESE 9 mph 20 mph 44% 0 in 962.00 W/m2
13:49 58.2 °F 35.8 °F 30.03 in ESE 7 mph 23 mph 43% 0 in 949.00 W/m2
13:54 58.6 °F 36.2 °F 30.03 in East 19 mph 23 mph 43% 0 in 963.00 W/m2
13:59 58.4 °F 35.4 °F 30.03 in East 17 mph 21 mph 42% 0 in 970.00 W/m2
14:04 58.4 °F 36 °F 30.03 in NE 11 mph 21 mph 43% 0 in 949.00 W/m2
14:09 59 °F 36.5 °F 30.03 in SE 9 mph 21 mph 43% 0 in 956.00 W/m2
14:14 59.3 °F 35.6 °F 30.02 in East 11 mph 22 mph 41% 0 in 940.00 W/m2
14:19 59.2 °F 35.5 °F 30.03 in SE 17 mph 22 mph 41% 0 in 937.00 W/m2
14:24 58.9 °F 37 °F 30.02 in SE 13 mph 20 mph 44% 0 in 935.00 W/m2
14:29 59.3 °F 37.9 °F 30.02 in ESE 13 mph 20 mph 45% 0 in 932.00 W/m2
14:34 59.1 °F 37.2 °F 30.02 in ESE 18 mph 20 mph 44% 0 in 928.00 W/m2
14:39 58.9 °F 37 °F 30.02 in ESE 10 mph 20 mph 44% 0 in 926.00 W/m2
14:44 59 °F 36.5 °F 30.02 in East 14 mph 19 mph 43% 0 in 930.00 W/m2
14:49 59.4 °F 39.1 °F 30.02 in ESE 10 mph 19 mph 47% 0 in 916.00 W/m2
14:54 60.1 °F 38.7 °F 30.01 in ESE 13 mph 19 mph 45% 0 in 914.00 W/m2
14:59 59.7 °F 37.2 °F 30.01 in East 9 mph 20 mph 43% 0 in 909.00 W/m2
15:04 59.5 °F 36.4 °F 30.01 in NE 13 mph 20 mph 42% 0 in 916.00 W/m2
15:09 59.9 °F 39.6 °F 30.00 in ESE 12 mph 20 mph 47% 0 in 972.00 W/m2
15:14 60.2 °F 36.4 °F 30.01 in East 15 mph 20 mph 41% 0 in 802.00 W/m2
15:19 59.9 °F 37.9 °F 30.01 in East 8 mph 19 mph 44% 0 in 606.00 W/m2
15:24 59.8 °F 37.2 °F 30.01 in ESE 14 mph 19 mph 43% 0 in 751.00 W/m2
15:29 59.7 °F 37.2 °F 30.01 in ESE 14 mph 19 mph 43% 0 in 671.00 W/m2
15:34 59.7 °F 36.6 °F 30.01 in East 13 mph 19 mph 42% 0 in 629.00 W/m2
15:39 59.5 °F 36.4 °F 30.01 in East 11 mph 20 mph 42% 0 in 761.00 W/m2
15:44 60 °F 36.8 °F 30.01 in East 13 mph 20 mph 42% 0 in 675.00 W/m2
15:49 59.8 °F 36 °F 30.00 in East 14 mph 20 mph 41% 0 in 805.00 W/m2
15:54 60.4 °F 35.9 °F 30.00 in ESE 12 mph 20 mph 40% 0 in 798.00 W/m2
15:59 60.5 °F 36 °F 30.00 in SE 12 mph 20 mph 40% 0 in 737.00 W/m2
16:04 60.5 °F 37.3 °F 30.00 in SE 15 mph 20 mph 42% 0 in 886.00 W/m2
16:09 60.5 °F 37.3 °F 30.00 in East 16 mph 20 mph 42% 0 in 814.00 W/m2
16:14 60.2 °F 36.4 °F 30.00 in East 10 mph 20 mph 41% 0 in 693.00 W/m2
16:19 60.3 °F 36.5 °F 30.00 in SE 9 mph 25 mph 41% 0 in 782.00 W/m2
16:24 60.4 °F 34 °F 30.00 in East 14 mph 25 mph 37% 0 in 737.00 W/m2
16:29 60.5 °F 34.1 °F 30.00 in ESE 9 mph 19 mph 37% 0 in 722.00 W/m2
16:34 60.3 °F 33.9 °F 30.00 in ESE 12 mph 19 mph 37% 0 in 719.00 W/m2
16:39 60.3 °F 34.6 °F 29.99 in SE 16 mph 22 mph 38% 0 in 696.00 W/m2
16:44 60 °F 34.3 °F 29.99 in ESE 7 mph 22 mph 38% 0 in 661.00 W/m2
16:49 60 °F 36.2 °F 29.99 in ESE 9 mph 22 mph 41% 0 in 656.00 W/m2
16:54 60.2 °F 35.1 °F 29.99 in ESE 13 mph 19 mph 39% 0 in 239.00 W/m2
16:59 59.7 °F 37.2 °F 29.99 in SE 10 mph 19 mph 43% 0 in 628.00 W/m2
17:04 60.3 °F 35.9 °F 29.98 in East 7 mph 16 mph 40% 0 in 628.00 W/m2
17:09 59.9 °F 34.9 °F 29.99 in ESE 12 mph 17 mph 39% 0 in 272.00 W/m2
17:14 59.5 °F 34.5 °F 29.98 in SE 9 mph 17 mph 39% 0 in 578.00 W/m2
17:19 59.3 °F 34.3 °F 29.98 in East 9 mph 17 mph 39% 0 in 272.00 W/m2
17:24 59.1 °F 34.8 °F 29.98 in ESE 13 mph 17 mph 40% 0 in 346.00 W/m2
17:29 58.9 °F 34.6 °F 29.98 in ESE 12 mph 16 mph 40% 0 in 353.00 W/m2
17:34 59.2 °F 34.9 °F 29.98 in ESE 12 mph 16 mph 40% 0 in 475.00 W/m2
17:39 59.4 °F 35.7 °F 29.98 in SSE 11 mph 18 mph 41% 0 in 262.00 W/m2
17:44 58.8 °F 36.9 °F 29.98 in SE 10 mph 18 mph 44% 0 in 230.00 W/m2
17:49 58.3 °F 38.7 °F 29.98 in South 12 mph 19 mph 48% 0 in 350.00 W/m2
17:54 57.9 °F 39.4 °F 29.99 in SE 11 mph 23 mph 50% 0 in 441.00 W/m2
17:59 57.7 °F 40.2 °F 29.99 in South 13 mph 23 mph 52% 0 in 378.00 W/m2
18:04 57.5 °F 40 °F 29.99 in SE 12 mph 21 mph 52% 0 in 376.00 W/m2
18:09 57.4 °F 39.4 °F 29.99 in SSE 13 mph 21 mph 51% 0 in 406.00 W/m2
18:14 57.6 °F 41.1 °F 29.99 in SSE 9 mph 21 mph 54% 0 in 385.00 W/m2
18:19 57.7 °F 39.7 °F 29.99 in SSE 12 mph 21 mph 51% 0 in 387.00 W/m2
18:24 57.5 °F 40 °F 29.99 in South 8 mph 21 mph 52% 0 in 378.00 W/m2
18:29 57.4 °F 40.4 °F 29.99 in SSE 13 mph 19 mph 53% 0 in 334.00 W/m2
18:34 57.4 °F 40.9 °F 29.99 in SSE 10 mph 19 mph 54% 0 in 332.00 W/m2
18:39 57.1 °F 39.6 °F 29.99 in SSE 10 mph 16 mph 52% 0 in 336.00 W/m2
18:44 57 °F 40 °F 29.98 in SE 10 mph 16 mph 53% 0 in 327.00 W/m2
18:49 56.8 °F 39.4 °F 29.98 in SE 15 mph 16 mph 52% 0 in 269.00 W/m2
18:54 56.4 °F 39.5 °F 29.98 in SSE 10 mph 18 mph 53% 0 in 221.00 W/m2
18:59 56.2 °F 39.8 °F 29.98 in South 8 mph 18 mph 54% 0 in 211.00 W/m2
19:04 56 °F 40.1 °F 29.98 in SE 9 mph 17 mph 55% 0 in 193.00 W/m2
19:09 55.9 °F 40.4 °F 29.99 in SE 10 mph 15 mph 56% 0 in 193.00 W/m2
19:14 55.6 °F 39.2 °F 29.98 in SSE 10 mph 16 mph 54% 0 in 186.00 W/m2
19:19 55.4 °F 40 °F 29.98 in South 8 mph 16 mph 56% 0 in 179.00 W/m2
19:24 55.3 °F 39.9 °F 29.98 in SE 13 mph 16 mph 56% 0 in 163.00 W/m2
19:29 55 °F 39.1 °F 29.98 in ESE 9 mph 16 mph 55% 0 in 148.00 W/m2
19:34 54.8 °F 39.4 °F 29.98 in SE 9 mph 16 mph 56% 0 in 137.00 W/m2
19:39 54.7 °F 39.3 °F 29.98 in SE 13 mph 16 mph 56% 0 in 125.00 W/m2
19:44 54.5 °F 39.1 °F 29.98 in SE 11 mph 16 mph 56% 0 in 118.00 W/m2
19:49 54.3 °F 38.9 °F 29.98 in SSE 8 mph 14 mph 56% 0 in 111.00 W/m2
19:54 54.1 °F 38.7 °F 29.98 in SSE 6 mph 14 mph 56% 0 in 100.00 W/m2
19:59 53.9 °F 39 °F 29.98 in SE 10 mph 14 mph 57% 0 in 91.00 W/m2
20:04 53.8 °F 39.4 °F 29.98 in SE 10 mph 14 mph 58% 0 in 81.00 W/m2
20:09 53.7 °F 39.3 °F 29.98 in SE 10 mph 14 mph 58% 0 in 70.00 W/m2
20:14 53.5 °F 39.1 °F 29.98 in South 9 mph 14 mph 58% 0 in 63.00 W/m2
20:19 53.3 °F 39.3 °F 29.98 in SSE 5 mph 14 mph 59% 0 in 54.00 W/m2
20:24 53.2 °F 39.2 °F 29.98 in SE 4 mph 12 mph 59% 0 in 47.00 W/m2
20:29 52.9 °F 39.4 °F 29.98 in SE 8 mph 12 mph 60% 0 in 42.00 W/m2
20:34 52.7 °F 39.2 °F 29.98 in ESE 5 mph 10 mph 60% 0 in 37.00 W/m2
20:39 52.5 °F 39 °F 29.98 in SE 8 mph 10 mph 60% 0 in 30.00 W/m2
20:44 52.3 °F 39.2 °F 29.98 in SE 4 mph 10 mph 61% 0 in 25.00 W/m2
20:49 52 °F 39.4 °F 29.98 in SE 4 mph 10 mph 62% 0 in 21.00 W/m2
20:54 51.7 °F 39.1 °F 29.98 in SE 5 mph 10 mph 62% 0 in 18.00 W/m2
20:59 51.4 °F 39.2 °F 29.98 in SE 5 mph 10 mph 63% 0 in 12.00 W/m2
21:04 51.2 °F 39 °F 29.98 in SE 4 mph 10 mph 63% 0 in 9.00 W/m2
21:09 50.9 °F 39.1 °F 29.98 in SSE 5 mph 10 mph 64% 0 in 7.00 W/m2
21:14 50.5 °F 38.8 °F 29.98 in SSE 3 mph 8 mph 64% 0 in 5.00 W/m2
21:19 50.1 °F 38.8 °F 29.98 in SSE 3 mph 8 mph 65% 0 in 0.00 W/m2
21:24 49.7 °F 38.8 °F 29.98 in SSE 3 mph 6 mph 66% 0 in 0.00 W/m2
21:29 49.3 °F 38.4 °F 29.98 in SSE 2 mph 6 mph 66% 0 in 0.00 W/m2
21:34 49.1 °F 38.2 °F 29.98 in SSE 2 mph 6 mph 66% 0 in 0.00 W/m2
21:39 48.9 °F 38 °F 29.98 in SSE 2 mph 5 mph 66% 0 in 0.00 W/m2
21:44 48.7 °F 37.8 °F 29.98 in SSE 3 mph 5 mph 66% 0 in 0.00 W/m2
21:49 48.6 °F 37.7 °F 29.98 in SE 3 mph 5 mph 66% 0 in 0.00 W/m2
21:54 48.4 °F 37.9 °F 29.98 in SE 3 mph 4 mph 67% 0 in 0.00 W/m2
21:59 48.3 °F 37.8 °F 29.98 in SE 3 mph 4 mph 67% 0 in 0.00 W/m2
22:04 48.1 °F 37.7 °F 29.98 in SE 3 mph 4 mph 67% 0 in 0.00 W/m2
22:09 48 °F 37.6 °F 29.99 in SE 3 mph 4 mph 67% 0 in 0.00 W/m2
22:14 47.9 °F 37.5 °F 29.99 in SE 2 mph 4 mph 67% 0 in 0.00 W/m2
22:19 47.8 °F 37.7 °F 29.99 in SE 2 mph 3 mph 68% 0 in 0.00 W/m2
22:24 47.7 °F 37.7 °F 29.99 in SE 2 mph 3 mph 68% 0 in 0.00 W/m2
22:29 47.5 °F 37.5 °F 29.98 in SE 2 mph 3 mph 68% 0 in 0.00 W/m2
22:34 47.4 °F 37.4 °F 29.98 in SE 1 mph 3 mph 68% 0 in 0.00 W/m2
22:39 47.2 °F 37.5 °F 29.98 in SE 2 mph 3 mph 69% 0 in 0.00 W/m2
22:44 47 °F 37.4 °F 29.98 in SE 1 mph 3 mph 69% 0 in 0.00 W/m2
22:49 46.9 °F 37.3 °F 29.98 in SE 1 mph 3 mph 69% 0 in 0.00 W/m2
22:54 46.8 °F 37.2 °F 29.98 in SE 2 mph 3 mph 69% 0 in 0.00 W/m2
22:59 46.7 °F 37.4 °F 29.98 in SE 2 mph 3 mph 70% 0 in 0.00 W/m2
23:04 46.7 °F 37.4 °F 29.98 in SE 2 mph 3 mph 70% 0 in 0.00 W/m2
23:09 46.7 °F 37.4 °F 29.98 in SE 2 mph 3 mph 70% 0 in 0.00 W/m2
23:14 46.7 °F 37.4 °F 29.98 in SE 2 mph 3 mph 70% 0 in 0.00 W/m2
23:19 46.7 °F 37.8 °F 29.99 in SE 2 mph 3 mph 71% 0 in 0.00 W/m2
23:24 46.5 °F 37.6 °F 29.99 in SE 2 mph 3 mph 71% 0 in 0.00 W/m2
23:29 46.4 °F 37.5 °F 29.99 in SE 2 mph 3 mph 71% 0 in 0.00 W/m2
23:34 46.4 °F 37.5 °F 29.99 in SE 2 mph 3 mph 71% 0 in 0.00 W/m2
23:39 46.6 °F 37.3 °F 29.99 in SE 2 mph 3 mph 70% 0 in 0.00 W/m2
23:44 46.7 °F 37.4 °F 29.98 in SE 2 mph 3 mph 70% 0 in 0.00 W/m2
23:49 46.7 °F 37.4 °F 29.98 in SE 3 mph 3 mph 70% 0 in 0.00 W/m2
23:54 46.5 °F 37.2 °F 29.98 in SE 3 mph 3 mph 70% 0 in 0.00 W/m2
23:59 46.4 °F 37.5 °F 29.98 in East 3 mph 4 mph 71% 0 in 0.00 W/m2
Bismarck, North Dakota, USA
Compliments of Weather Underground - 4 mb